createdAt,value
2023-04-11T00:00:08.672Z,0.1
2023-04-11T00:02:12.523Z,0.1
2023-04-11T00:04:16.664Z,0.1
2023-04-11T00:06:20.244Z,0.1
2023-04-11T00:08:24.079Z,0.1
2023-04-11T00:10:30.816Z,0.1
2023-04-11T00:12:34.630Z,0.1
2023-04-11T00:14:38.446Z,0.1
2023-04-11T00:22:53.762Z,0.1
2023-04-11T00:25:00.395Z,0.1
2023-04-11T00:27:04.195Z,0.1
2023-04-11T00:30:11.339Z,0.1
2023-04-11T00:32:15.510Z,0.1
2023-04-11T00:40:33.210Z,0.1
2023-04-11T00:42:37.027Z,0.1
2023-04-11T00:46:46.104Z,0.1
2023-04-11T00:48:49.988Z,0.1
2023-04-11T00:50:53.747Z,0.1
2023-04-11T00:53:00.535Z,0.1
2023-04-11T00:55:04.172Z,0.1
2023-04-11T00:57:07.994Z,0.1
2023-04-11T00:59:11.788Z,0.1
2023-04-11T01:07:29.856Z,0.1
2023-04-11T01:13:41.281Z,0.1
2023-04-11T01:15:45.099Z,0.1
2023-04-11T01:17:48.930Z,0.1
2023-04-11T01:19:52.752Z,0.1
2023-04-11T01:21:59.378Z,0.2
2023-04-11T01:28:30.893Z,0.1
2023-04-11T01:30:34.767Z,0.1
2023-04-11T01:32:38.537Z,0.1
2023-04-11T01:59:36.625Z,0.2
2023-04-11T02:01:38.726Z,0.1
2023-04-11T02:03:45.400Z,0.1
2023-04-11T02:05:49.124Z,0.1
2023-04-11T02:07:52.946Z,0.1
2023-04-11T02:09:56.792Z,0.1
2023-04-11T02:12:00.628Z,0.1
2023-04-11T02:14:04.463Z,0.1
2023-04-11T02:18:14.967Z,0.1
2023-04-11T02:22:22.620Z,0.1
2023-04-11T02:23:25.932Z,0
2023-04-11T02:31:44.179Z,0.1
2023-04-11T02:33:47.954Z,0.1
2023-04-11T02:35:51.823Z,0.2
2023-04-11T02:37:55.576Z,0.1
2023-04-11T02:39:59.457Z,0.1
2023-04-11T02:42:03.287Z,0.1
2023-04-11T02:44:07.118Z,0.1
2023-04-11T02:48:17.575Z,0.1
2023-04-11T02:54:29.060Z,0.1
2023-04-11T03:00:43.394Z,0.1
2023-04-11T03:02:47.373Z,0.1
2023-04-11T03:04:51.160Z,0.1
2023-04-11T03:06:55.006Z,0.1
2023-04-11T03:19:20.815Z,0
2023-04-11T03:20:24.115Z,0.1
2023-04-11T03:47:19.538Z,0.1
2023-04-11T03:49:23.394Z,0.1
2023-04-11T03:51:27.247Z,0.1
2023-04-11T03:53:31.063Z,0.1
2023-04-11T03:55:34.893Z,0.1
2023-04-11T04:05:56.866Z,0.2
2023-04-11T04:08:00.693Z,0.1
2023-04-11T04:10:04.533Z,0.1
2023-04-11T04:12:11.194Z,0.1
2023-04-11T04:19:26.036Z,0.1
2023-04-11T04:21:29.849Z,0.1
2023-04-11T04:23:33.670Z,0.1
2023-04-11T04:25:40.321Z,0.1
2023-04-11T04:27:44.196Z,0.1
2023-04-11T04:29:50.279Z,0
2023-04-11T04:31:51.883Z,0.1
2023-04-11T04:35:59.597Z,0.1
2023-04-11T04:38:03.334Z,0.1
2023-04-11T04:40:09.995Z,0.1
2023-04-11T04:42:13.824Z,0.1
2023-04-11T04:44:17.645Z,0.1
2023-04-11T04:46:21.505Z,0.1
2023-04-11T04:48:25.318Z,0.1
2023-04-11T04:52:32.984Z,0.1
2023-04-11T04:54:39.644Z,0.1
2023-04-11T04:56:43.466Z,0.1
2023-04-11T05:02:55.232Z,0.1
2023-04-11T05:07:02.680Z,0.1
2023-04-11T05:09:09.346Z,0.1
2023-04-11T05:13:17.017Z,0.1
2023-04-11T05:15:35.096Z,0.1
2023-04-11T05:17:38.949Z,0.1
2023-04-11T05:19:42.767Z,0.1
2023-04-11T05:21:49.411Z,0.1
2023-04-11T05:23:53.250Z,0.1
2023-04-11T05:25:57.123Z,0.1
2023-04-11T05:28:00.958Z,0.1
2023-04-11T05:30:04.927Z,0.1
2023-04-11T05:32:08.729Z,0.1
2023-04-11T05:34:12.609Z,0.1
2023-04-11T05:36:19.251Z,0.1
2023-04-11T05:38:23.071Z,0.1
2023-04-11T05:40:26.901Z,0.1
2023-04-11T05:42:30.750Z,0.1
2023-04-11T05:44:34.564Z,0.1
2023-04-11T05:46:38.563Z,0.1
2023-04-11T05:48:42.229Z,0.1
2023-04-11T06:01:08.073Z,0
2023-04-11T06:05:18.619Z,0.1
2023-04-11T06:07:22.446Z,0.1
2023-04-11T06:09:26.273Z,0.1
2023-04-11T06:10:29.596Z,0.1
2023-04-11T06:16:41.122Z,1.1
2023-04-11T06:18:47.731Z,0.8
2023-04-11T06:20:51.588Z,1.1
2023-04-11T06:22:55.433Z,0.7
2023-04-11T06:27:03.105Z,1.3
2023-04-11T06:29:06.950Z,1.5
2023-04-11T06:33:17.445Z,1.8
2023-04-11T06:41:32.828Z,0.5
2023-04-11T06:43:36.686Z,0.8
2023-04-11T06:45:42.020Z,0.7
2023-04-11T06:47:48.695Z,0.4
2023-04-11T06:49:52.513Z,1.8
2023-04-11T06:51:56.365Z,0.8
2023-04-11T06:54:00.194Z,1.3
2023-04-11T06:56:04.062Z,1.1
2023-04-11T06:58:07.928Z,0.5
2023-04-11T07:00:11.764Z,1.5
2023-04-11T07:02:18.538Z,1.8
2023-04-11T07:04:22.386Z,1.4
2023-04-11T07:07:29.465Z,1.3
2023-04-11T07:09:33.354Z,0.7
2023-04-11T07:11:37.166Z,0.7
2023-04-11T07:15:47.734Z,1.3
2023-04-11T07:17:53.015Z,0.8
2023-04-11T07:19:55.438Z,1.4
2023-04-11T07:21:59.279Z,1.5
2023-04-11T07:24:03.146Z,0.9
2023-04-11T07:26:07.007Z,1
2023-04-11T07:28:10.883Z,0.9
2023-04-11T07:30:17.554Z,0.9
2023-04-11T07:32:21.448Z,1.4
2023-04-11T07:34:25.324Z,2
2023-04-11T07:36:29.177Z,1.4
2023-04-11T07:38:33.054Z,1.9
2023-04-11T07:40:36.926Z,1.8
2023-04-11T07:42:40.804Z,1.6
2023-04-11T07:44:47.506Z,0.6
2023-04-11T07:46:51.397Z,0.7
2023-04-11T07:50:59.173Z,1.3
2023-04-11T07:53:03.060Z,1.2
2023-04-11T07:55:06.952Z,0.7
2023-04-11T07:57:10.873Z,0.9
2023-04-11T07:59:17.588Z,0.9
2023-04-11T08:01:21.505Z,0.9
2023-04-11T08:03:25.692Z,1.1
2023-04-11T08:04:29.057Z,0.8
2023-04-11T08:06:32.672Z,1.3
2023-04-11T08:08:36.609Z,1.4
2023-04-11T08:10:40.558Z,1.1
2023-04-11T08:12:47.264Z,1.1
2023-04-11T08:14:51.204Z,1
2023-04-11T08:16:55.230Z,1.1
2023-04-11T08:18:59.082Z,1
2023-04-11T08:21:02.956Z,0.7
2023-04-11T08:33:29.325Z,0.4
2023-04-11T08:35:33.290Z,1
2023-04-11T08:37:37.178Z,0.8
2023-04-11T08:39:41.129Z,0.8
2023-04-11T08:41:47.854Z,2.3
2023-04-11T08:45:55.747Z,0.9
2023-04-11T08:47:59.669Z,1.1
2023-04-11T08:50:03.649Z,1
2023-04-11T08:52:07.494Z,0.7
2023-04-11T08:54:11.427Z,0.7
2023-04-11T08:56:18.157Z,0.7
2023-04-11T08:58:22.094Z,0.9
2023-04-11T09:00:26.040Z,0.7
2023-04-11T09:02:55.711Z,0.7
2023-04-11T09:04:59.577Z,0.9
2023-04-11T09:07:03.478Z,0.6
2023-04-11T09:09:10.223Z,0.6
2023-04-11T09:11:14.155Z,0.8
2023-04-11T09:13:18.064Z,0.9
2023-04-11T09:15:22.023Z,5.1
2023-04-11T09:17:25.923Z,1.1
2023-04-11T09:19:29.861Z,1
2023-04-11T09:21:33.755Z,0.7
2023-04-11T09:23:40.501Z,0.5
2023-04-11T09:27:48.347Z,3.9
2023-04-11T09:29:52.245Z,0.8
2023-04-11T09:31:56.179Z,0.9
2023-04-11T09:34:00.398Z,1.5
2023-04-11T09:54:45.011Z,1.2
2023-04-11T09:59:56.253Z,1.1
2023-04-11T10:02:00.337Z,0.8
2023-04-11T10:20:41.278Z,0.4
2023-04-11T10:22:45.204Z,1
2023-04-11T10:24:49.132Z,0.8
2023-04-11T10:28:56.966Z,1
2023-04-11T10:31:00.917Z,1.2
2023-04-11T10:33:04.893Z,0.5
2023-04-11T10:35:11.557Z,1.1
2023-04-11T10:37:15.501Z,0.7
2023-04-11T10:39:19.403Z,1.5
2023-04-11T10:41:23.337Z,0.9
2023-04-11T10:43:27.261Z,0.6
2023-04-11T10:45:31.174Z,0.9
2023-04-11T10:47:35.129Z,0.6
2023-04-11T10:49:41.833Z,0.6
2023-04-11T10:51:45.756Z,0.6
2023-04-11T10:53:49.683Z,0.8
2023-04-11T10:59:00.906Z,0.5
2023-04-11T11:01:04.878Z,0.7
2023-04-11T11:03:11.759Z,0.6
2023-04-11T11:05:15.544Z,0.5
2023-04-11T11:07:19.491Z,0.8
2023-04-11T11:11:27.325Z,0.7
2023-04-11T11:13:31.271Z,1
2023-04-11T11:15:35.204Z,0.8
2023-04-11T11:17:41.970Z,0.7
2023-04-11T11:19:45.900Z,0.6
2023-04-11T11:21:49.832Z,0.9
2023-04-11T11:23:53.979Z,0.5
2023-04-11T11:25:57.698Z,0.7
2023-04-11T11:28:01.601Z,0.5
2023-04-11T11:30:05.560Z,0.9
2023-04-11T11:32:12.383Z,0.6
2023-04-11T11:38:24.104Z,1
2023-04-11T11:40:28.028Z,1
2023-04-11T11:42:31.948Z,0.4
2023-04-11T11:50:50.508Z,0.6
2023-04-11T11:53:57.820Z,0.3
2023-04-11T11:56:01.776Z,1.2
2023-04-11T12:00:12.443Z,0.4
2023-04-11T12:02:16.534Z,0.9
2023-04-11T12:04:20.406Z,0.8
2023-04-11T12:08:28.179Z,0.3
2023-04-11T12:14:42.811Z,1.4
2023-04-11T12:33:21.026Z,0.6
2023-04-11T12:47:52.879Z,0.9
2023-04-11T12:50:22.503Z,0.9
2023-04-11T12:52:26.428Z,1.7
2023-04-11T12:54:30.362Z,1.4
2023-04-11T13:00:45.003Z,1.1
2023-04-11T13:06:56.766Z,0.7
2023-04-11T13:09:00.663Z,0.5
2023-04-11T13:11:07.443Z,0.7
2023-04-11T13:13:17.917Z,0.9
2023-04-11T13:15:15.364Z,1
2023-04-11T13:17:19.233Z,1.1
2023-04-11T13:19:23.177Z,0.5
2023-04-11T13:23:31.001Z,0.6
2023-04-11T13:25:37.779Z,0.7
2023-04-11T13:27:41.694Z,1
2023-04-11T13:29:45.618Z,1.5
2023-04-11T13:31:49.576Z,1.5
2023-04-11T13:35:57.400Z,0.9
2023-04-11T13:38:01.362Z,1
2023-04-11T13:40:08.096Z,0.9
2023-04-11T13:42:12.044Z,0.8
2023-04-11T13:44:15.992Z,1.2
2023-04-11T13:45:19.362Z,0.9
2023-04-11T13:47:23.419Z,1.1
2023-04-11T13:49:27.232Z,0.8
2023-04-11T13:53:37.891Z,0.8
2023-04-11T13:57:45.764Z,0.6
2023-04-11T13:59:49.691Z,1
2023-04-11T14:01:53.721Z,1.4
2023-04-11T14:06:01.496Z,0.6
2023-04-11T14:12:16.116Z,0.6
2023-04-11T14:28:50.373Z,1.6
2023-04-11T14:32:58.225Z,0.2
2023-04-11T14:35:02.559Z,0.7
2023-04-11T14:37:08.911Z,1.6
2023-04-11T14:39:12.798Z,0.5
2023-04-11T14:41:16.780Z,0.6
2023-04-11T14:42:20.126Z,0.6
2023-04-11T14:50:38.645Z,0.7
2023-04-11T14:54:46.526Z,1
2023-04-11T15:03:02.377Z,0.5
2023-04-11T15:09:16.849Z,0.5
2023-04-11T15:11:20.785Z,0.7
2023-04-11T15:13:24.709Z,0.5
2023-04-11T15:15:28.694Z,0.3
2023-04-11T15:17:32.605Z,0.5
2023-04-11T15:19:39.309Z,0.5
2023-04-11T15:21:43.238Z,0.3
2023-04-11T15:29:58.977Z,0.8
2023-04-11T15:36:13.632Z,0.8
2023-04-11T15:38:17.501Z,0.5
2023-04-11T15:39:20.868Z,0.5
2023-04-11T15:43:28.734Z,0.6
2023-04-11T15:45:32.638Z,0.6
2023-04-11T15:47:39.385Z,0.4
2023-04-11T15:49:43.321Z,0.9
2023-04-11T15:51:47.236Z,1.1
2023-04-11T15:53:51.196Z,1.1
2023-04-11T15:55:55.096Z,1.4
2023-04-11T15:57:58.987Z,0.6
2023-04-11T16:00:02.971Z,1
2023-04-11T16:02:09.775Z,1
2023-04-11T16:04:13.671Z,1.8
2023-04-11T16:06:17.497Z,1
2023-04-11T16:08:21.429Z,0.5
2023-04-11T16:10:25.666Z,1.1
2023-04-11T16:14:33.186Z,1.5
2023-04-11T16:20:47.773Z,1.4
2023-04-11T16:22:51.676Z,1.1
2023-04-11T16:24:55.604Z,1.6
2023-04-11T16:26:59.527Z,1
2023-04-11T16:31:10.178Z,0.5
2023-04-11T16:33:14.119Z,0.7
2023-04-11T16:35:18.005Z,0.6
2023-04-11T16:37:47.648Z,0.9
2023-04-11T16:39:51.543Z,0.9
2023-04-11T16:41:56.008Z,0.9
2023-04-11T16:44:02.233Z,1.2
2023-04-11T16:46:06.195Z,1.4
2023-04-11T16:48:10.049Z,0.9
2023-04-11T16:50:13.961Z,1.1
2023-04-11T16:52:17.913Z,0.7
2023-04-11T16:54:21.816Z,0.7
2023-04-11T16:56:27.523Z,0.7
2023-04-11T17:00:36.377Z,0.8
2023-04-11T17:02:40.472Z,0.7
2023-04-11T17:04:44.210Z,0.4
2023-04-11T17:06:48.151Z,0.9
2023-04-11T17:08:52.064Z,0.5
2023-04-11T17:13:02.745Z,1.1
2023-04-11T17:15:06.611Z,0.8
2023-04-11T17:17:10.664Z,0.7
2023-04-11T17:19:14.517Z,0.9
2023-04-11T17:32:44.631Z,1.5
2023-04-11T17:34:48.543Z,1.1
2023-04-11T17:36:53.747Z,0.9
2023-04-11T17:38:56.360Z,0.9
2023-04-11T17:41:13.556Z,1.1
2023-04-11T17:43:07.024Z,0.9
2023-04-11T17:45:17.244Z,0.9
2023-04-11T17:47:14.840Z,1.3
2023-04-11T17:49:18.768Z,0.6
2023-04-11T17:51:22.693Z,1.5
2023-04-11T17:53:26.578Z,0.7
2023-04-11T17:55:33.314Z,1
2023-04-11T17:57:37.209Z,1.6
2023-04-11T17:59:41.093Z,0.9
2023-04-11T18:12:07.347Z,1.5
2023-04-11T18:14:11.248Z,1.6
2023-04-11T18:16:15.154Z,1.7
2023-04-11T18:18:19.019Z,2.4
2023-04-11T18:22:26.828Z,2.9
2023-04-11T18:24:33.548Z,1.7
2023-04-11T18:26:37.421Z,2.5
2023-04-11T18:28:41.337Z,1.9
2023-04-11T18:35:56.489Z,1.9
2023-04-11T18:54:38.478Z,2.1
2023-04-11T18:58:49.290Z,2
2023-04-11T19:02:54.281Z,1.9
2023-04-11T19:04:57.897Z,1.9
2023-04-11T19:07:04.499Z,2.7
2023-04-11T19:09:08.452Z,1.3
2023-04-11T19:11:12.306Z,2.3
2023-04-11T19:13:16.196Z,1.9
2023-04-11T19:15:20.112Z,1.7
2023-04-11T19:17:24.034Z,2.4
2023-04-11T19:19:27.864Z,2.2
2023-04-11T19:21:34.589Z,2.4
2023-04-11T19:23:38.475Z,2.1
2023-04-11T19:25:42.412Z,1.9
2023-04-11T19:26:45.717Z,1.9
2023-04-11T19:30:53.513Z,2.4
2023-04-11T19:32:57.522Z,2.8
2023-04-11T19:35:04.140Z,1.7
2023-04-11T19:37:08.044Z,1.6
2023-04-11T19:39:11.929Z,1.6
2023-04-11T19:41:15.851Z,1.8
2023-04-11T19:43:19.763Z,1.2
2023-04-11T19:45:23.626Z,1.3
2023-04-11T19:49:34.248Z,1
2023-04-11T19:53:42.059Z,1.7
2023-04-11T19:55:45.932Z,1.8
2023-04-11T19:57:49.834Z,2
2023-04-11T19:59:53.727Z,2
2023-04-11T20:01:57.669Z,1.5
2023-04-11T20:04:04.434Z,1.8
2023-04-11T20:06:08.238Z,1
2023-04-11T20:08:12.139Z,2.1
2023-04-11T20:10:16.038Z,2.4
2023-04-11T20:12:19.924Z,2.8
2023-04-11T20:14:23.808Z,2
2023-04-11T20:16:27.789Z,2
2023-04-11T20:18:34.428Z,1.5
2023-04-11T20:20:38.330Z,1.1
2023-04-11T20:22:42.249Z,1.4
2023-04-11T20:25:12.037Z,1.2
2023-04-11T20:31:26.471Z,1.1
2023-04-11T20:35:34.219Z,1
2023-04-11T20:37:38.043Z,1
2023-04-11T20:56:15.840Z,1.6
2023-04-11T20:58:19.726Z,2.1
2023-04-11T21:02:30.514Z,2.1
2023-04-11T21:04:34.362Z,1.6
2023-04-11T21:06:38.079Z,1.7
2023-04-11T21:12:49.714Z,1.3
2023-04-11T21:20:07.523Z,1.6
2023-04-11T21:28:25.821Z,1.2
2023-04-11T21:30:29.705Z,1.5
2023-04-11T21:34:37.469Z,1.1
2023-04-11T21:38:45.200Z,1.4
2023-04-11T21:40:49.087Z,1.4
2023-04-11T21:42:55.775Z,1.3
2023-04-11T21:44:59.657Z,1.6
2023-04-11T21:57:25.791Z,1.3
2023-04-11T22:01:33.548Z,1.1
2023-04-11T22:05:41.329Z,1.3
2023-04-11T22:07:45.177Z,2.2
2023-04-11T22:09:49.067Z,1.5
2023-04-11T22:13:59.804Z,1.4
2023-04-11T22:16:03.593Z,1.3
2023-04-11T22:17:06.882Z,1.2
2023-04-11T22:29:32.988Z,1.5
2023-04-11T22:31:36.918Z,1.4
2023-04-11T22:33:40.743Z,1.1
2023-04-11T22:37:48.532Z,1
2023-04-11T22:39:55.245Z,1
2023-04-11T22:41:59.109Z,1.5
2023-04-11T22:50:14.676Z,0.9
2023-04-11T22:54:25.213Z,1.2
2023-04-11T22:56:29.127Z,1
2023-04-11T22:58:33.012Z,1.9
2023-04-11T23:00:36.875Z,1.6
2023-04-11T23:06:48.531Z,1.3
2023-04-11T23:08:55.260Z,1.4
2023-04-11T23:10:59.136Z,1
2023-04-11T23:13:03.006Z,1.5
2023-04-11T23:14:06.372Z,1.3
2023-04-11T23:22:24.752Z,0.7
2023-04-11T23:26:32.565Z,1.1
2023-04-11T23:30:40.378Z,1.2
2023-04-11T23:32:44.206Z,1
2023-04-11T23:34:48.106Z,1.4
2023-04-11T23:36:54.778Z,1.9
2023-04-11T23:38:58.676Z,1
2023-04-11T23:41:02.542Z,1.3
2023-04-11T23:43:06.449Z,1.4
2023-04-11T23:47:14.173Z,1.4
2023-04-11T23:53:28.652Z,1.2
2023-04-11T23:55:32.535Z,1
2023-04-11T23:57:36.411Z,1.3
2023-04-11T23:59:40.306Z,1.2
